Time;durP1;ratioP1;P1;durP2;ratioP2;P2;SDS_P1;SDS_P2;PMS_P1;PMS_P2;Temp;Humidity;BMP_temperature;BMP_pressure;BME280_temperature;BME280_humidity;BME280_pressure;Samples;Min_cycle;Max_cycle;Signal;HPM_P1;HPM_P2
2022/08/02 00:02:24;;;;;;;7.43;3.33;;;;;;;18.30;52.87;100798.84;10406612;28;20594;-79
2022/08/02 00:07:47;;;;;;;3.70;3.20;;;;;;;18.25;52.59;100804.81;10385834;28;20248;-80
2022/08/02 00:13:09;;;;;;;3.23;2.93;;;;;;;18.12;53.88;100803.31;10391952;28;20248;-80
2022/08/02 00:18:31;;;;;;;3.80;3.00;;;;;;;17.57;55.46;100811.09;10381493;28;20224;-79
2022/08/02 00:23:53;;;;;;;5.40;2.80;;;;;;;17.93;53.90;100817.59;10402827;28;20220;-80
2022/08/02 00:29:15;;;;;;;3.87;2.57;;;;;;;17.95;53.65;100818.88;10395241;28;20249;-81
2022/08/02 00:34:37;;;;;;;5.22;3.05;;;;;;;17.84;53.98;100814.13;10389231;28;20318;-80
2022/08/02 00:40:01;;;;;;;5.43;2.65;;;;;;;17.72;54.24;100817.13;10383453;28;20232;-80
2022/08/02 00:45:24;;;;;;;2.80;2.30;;;;;;;17.93;53.60;100803.34;10393387;28;20224;-79
2022/08/02 00:50:46;;;;;;;3.53;2.30;;;;;;;17.95;52.76;100796.06;10393813;28;20294;-81
2022/08/02 00:56:08;;;;;;;7.50;3.03;;;;;;;17.85;53.39;100798.66;10385874;28;20224;-80
2022/08/02 01:01:37;;;;;;;6.50;3.17;;;;;;;17.67;53.74;100806.84;10395761;28;20216;-80
2022/08/02 01:07:00;;;;;;;4.45;2.75;;;;;;;17.48;54.18;100801.91;10377543;28;20313;-80
2022/08/02 01:12:22;;;;;;;4.87;2.93;;;;;;;17.67;54.26;100808.88;10377104;28;20252;-81
2022/08/02 01:17:53;;;;;;;5.73;3.07;;;;;;;17.59;53.84;100814.34;10379129;28;20279;-80
2022/08/02 01:23:40;;;;;;;5.30;3.13;;;;;;;17.54;54.26;100800.41;10416651;28;20237;-79
2022/08/02 01:29:25;;;;;;;6.40;2.88;;;;;;;17.53;54.14;100790.22;10392664;28;20224;-79
2022/08/02 01:34:59;;;;;;;6.33;2.73;;;;;;;17.73;52.62;100784.56;10392618;28;20256;-80
2022/08/02 01:40:26;;;;;;;8.05;3.00;;;;;;;17.74;52.96;100787.03;10382401;28;20683;-80
2022/08/02 01:45:49;;;;;;;5.70;2.90;;;;;;;17.49;53.61;100792.16;10386030;28;20297;-79
2022/08/02 01:51:14;;;;;;;6.70;3.13;;;;;;;17.43;53.96;100787.13;10377730;28;20302;-80
2022/08/02 01:56:37;;;;;;;6.32;3.13;;;;;;;17.46;54.63;100781.47;10380761;28;20205;-80
2022/08/02 02:02:01;;;;;;;5.37;3.17;;;;;;;17.58;53.64;100781.34;10390516;28;20604;-80
2022/08/02 02:07:23;;;;;;;4.45;3.13;;;;;;;17.34;54.07;100778.75;10415228;28;20518;-81
2022/08/02 02:12:47;;;;;;;5.23;2.80;;;;;;;17.44;53.58;100778.22;10399946;28;20220;-79
2022/08/02 02:18:12;;;;;;;5.97;3.50;;;;;;;16.97;55.30;100771.75;10399450;28;20267;-80
2022/08/02 02:23:34;;;;;;;5.87;3.30;;;;;;;16.96;55.20;100772.94;10391882;28;20196;-79
2022/08/02 02:29:00;;;;;;;8.57;3.92;;;;;;;16.84;55.94;100766.13;10410144;28;20201;-80
2022/08/02 02:34:32;;;;;;;7.03;3.80;;;;;;;17.18;54.42;100758.88;10412221;28;20281;-80
2022/08/02 02:39:55;;;;;;;5.97;3.90;;;;;;;17.23;54.00;100755.72;10404270;28;20263;-79
2022/08/02 02:45:19;;;;;;;8.37;3.67;;;;;;;16.89;54.87;100760.16;10410316;28;20185;-80
2022/08/02 02:50:42;;;;;;;9.10;4.17;;;;;;;16.88;54.58;100747.13;10410846;28;20208;-80
2022/08/02 02:56:04;;;;;;;7.20;3.60;;;;;;;16.95;54.80;100746.50;10406013;28;20535;-79
2022/08/02 03:01:26;;;;;;;3.95;3.53;;;;;;;17.09;53.46;100737.47;10411421;28;20216;-79
2022/08/02 03:06:48;;;;;;;7.60;3.97;;;;;;;16.97;54.08;100734.72;10391240;28;20288;-79
2022/08/02 03:12:11;;;;;;;6.00;4.00;;;;;;;17.10;53.94;100727.72;10394698;28;20599;-79
2022/08/02 03:17:44;;;;;;;5.07;3.50;;;;;;;17.01;54.35;100736.47;10402997;28;20242;-79
2022/08/02 03:23:06;;;;;;;7.30;4.40;;;;;;;16.62;55.94;100746.84;10402440;28;20193;-79
2022/08/02 03:28:29;;;;;;;7.10;3.97;;;;;;;17.00;54.26;100754.75;10399956;28;20212;-79
2022/08/02 03:33:52;;;;;;;5.67;3.97;;;;;;;16.62;56.08;100757.41;10393548;28;20248;-79
2022/08/02 03:39:15;;;;;;;5.83;3.83;;;;;;;16.68;54.77;100742.53;10399346;28;20228;-79
2022/08/02 03:44:38;;;;;;;5.50;3.93;;;;;;;16.49;56.20;100731.06;10395590;28;20204;-78
2022/08/02 03:50:01;;;;;;;9.80;4.83;;;;;;;16.69;55.61;100721.41;10394601;28;20223;-78
2022/08/02 03:55:23;;;;;;;11.40;4.07;;;;;;;16.45;56.51;100724.44;10387292;28;20223;-79
2022/08/02 04:00:46;;;;;;;6.27;4.20;;;;;;;16.95;54.17;100714.34;10399213;28;20224;-79
2022/08/02 04:06:08;;;;;;;5.20;3.57;;;;;;;16.59;55.48;100721.97;10398091;28;20239;-79
2022/08/02 04:11:30;;;;;;;5.97;4.40;;;;;;;16.37;55.84;100745.38;10386085;28;20248;-79
2022/08/02 04:16:56;;;;;;;5.40;4.30;;;;;;;16.79;54.94;100746.50;10388449;28;20220;-79
2022/08/02 04:22:28;;;;;;;4.50;4.10;;;;;;;16.64;54.99;100749.34;10386414;28;20201;-79
2022/08/02 04:27:51;;;;;;;7.83;4.23;;;;;;;16.77;54.96;100751.72;10395356;28;20196;-79
2022/08/02 04:33:14;;;;;;;5.10;3.90;;;;;;;16.93;54.16;100752.53;10391188;28;20217;-79
2022/08/02 04:38:36;;;;;;;9.02;4.30;;;;;;;16.82;54.94;100757.13;10393957;28;20289;-79
2022/08/02 04:43:58;;;;;;;10.27;4.80;;;;;;;17.09;54.37;100754.56;10403238;28;20220;-79
2022/08/02 04:49:20;;;;;;;6.63;4.67;;;;;;;16.89;55.08;100751.63;10401822;28;20217;-79
2022/08/02 04:54:42;;;;;;;7.40;4.67;;;;;;;17.03;55.39;100745.47;10399352;28;20271;-79
2022/08/02 05:00:06;;;;;;;6.17;5.00;;;;;;;17.23;55.10;100743.50;10405346;28;20235;-79
2022/08/02 05:05:28;;;;;;;6.10;4.57;;;;;;;17.16;55.47;100743.34;10386941;28;20244;-79
2022/08/02 05:10:50;;;;;;;7.60;4.68;;;;;;;17.41;54.55;100756.16;10393258;28;20228;-79
2022/08/02 05:16:13;;;;;;;11.37;5.07;;;;;;;17.54;54.40;100754.81;10403223;28;20463;-79
2022/08/02 05:21:35;;;;;;;10.07;4.80;;;;;;;17.50;54.38;100758.78;10393178;28;20218;-79
2022/08/02 05:26:57;;;;;;;9.87;4.27;;;;;;;17.61;54.86;100749.28;10406133;28;20196;-79
2022/08/02 05:32:19;;;;;;;8.18;5.03;;;;;;;17.48;55.10;100755.47;10383991;28;20306;-78
2022/08/02 05:37:41;;;;;;;10.70;4.80;;;;;;;17.63;54.40;100752.59;10374046;28;20229;-78
2022/08/02 05:43:11;;;;;;;11.32;5.00;;;;;;;17.97;53.71;100755.72;10402129;28;20224;-78
2022/08/02 05:48:33;;;;;;;7.10;4.50;;;;;;;17.70;54.72;100768.22;10400143;28;20224;-80
2022/08/02 05:54:07;;;;;;;7.03;4.80;;;;;;;18.08;53.55;100762.50;10396388;28;20302;-81
2022/08/02 06:00:00;;;;;;;10.48;4.65;;;;;;;18.15;53.77;100748.38;10405401;28;20282;-79
2022/08/02 06:05:25;;;;;;;8.50;5.03;;;;;;;17.65;54.57;100743.66;10406224;28;20245;-79
2022/08/02 06:10:49;;;;;;;10.53;5.17;;;;;;;18.03;54.13;100739.97;10401962;28;20231;-82
2022/08/02 06:16:12;;;;;;;7.95;4.82;;;;;;;18.06;54.06;100741.25;10402998;28;20262;-78
2022/08/02 06:21:35;;;;;;;8.50;4.40;;;;;;;18.55;53.71;100744.25;10412865;28;20224;-82
2022/08/02 06:26:58;;;;;;;7.95;4.93;;;;;;;18.29;53.80;100745.00;10397431;28;20929;-82
2022/08/02 06:32:20;;;;;;;10.13;4.88;;;;;;;17.93;55.46;100735.72;10399178;28;20267;-82
2022/08/02 06:38:01;;;;;;;9.80;4.90;;;;;;;18.05;54.87;100740.44;10411053;28;20257;-81
2022/08/02 06:43:41;;;;;;;8.87;4.87;;;;;;;18.67;53.99;100732.66;10394033;28;20282;-83
2022/08/02 06:49:03;;;;;;;6.40;4.43;;;;;;;19.30;52.08;100714.91;10401208;28;20219;-83
2022/08/02 06:54:26;;;;;;;8.70;5.13;;;;;;;19.02;52.20;100727.53;10376587;28;20252;-81
2022/08/02 06:59:48;;;;;;;8.27;4.57;;;;;;;19.51;50.94;100720.94;10414074;28;20616;-82
2022/08/02 07:05:10;;;;;;;8.60;4.93;;;;;;;19.49;50.94;100726.22;10394373;28;20656;-81
2022/08/02 07:10:32;;;;;;;6.07;3.90;;;;;;;20.00;50.37;100726.47;10403630;28;20205;-82
2022/08/02 07:15:55;;;;;;;10.38;5.03;;;;;;;19.92;50.11;100727.59;10390206;28;20252;-81
2022/08/02 07:21:17;;;;;;;5.10;3.90;;;;;;;19.91;49.87;100719.44;10400678;28;20228;-81
2022/08/02 07:26:39;;;;;;;6.00;3.72;;;;;;;20.12;48.78;100713.94;10401431;28;20259;-81
2022/08/02 07:32:01;;;;;;;8.20;3.25;;;;;;;20.58;47.57;100716.44;10411478;28;20248;-78
2022/08/02 07:37:26;;;;;;;6.40;3.38;;;;;;;20.69;46.36;100714.53;10405225;28;20824;-77
2022/08/02 07:42:53;;;;;;;7.05;2.53;;;;;;;21.07;44.60;100716.91;10412654;28;20215;-77
2022/08/02 07:48:15;;;;;;;2.75;1.50;;;;;;;21.00;42.81;100710.28;10388550;28;20624;-77
2022/08/02 07:53:37;;;;;;;5.28;1.38;;;;;;;20.79;40.89;100716.69;10391794;28;20252;-77
2022/08/02 07:58:59;;;;;;;2.42;1.30;;;;;;;20.95;41.54;100720.06;10399300;28;20197;-76
2022/08/02 08:04:21;;;;;;;3.45;2.20;;;;;;;21.24;40.45;100703.91;10399377;28;20228;-77
2022/08/02 08:09:46;;;;;;;3.72;1.77;;;;;;;21.13;38.94;100708.75;10386098;28;20200;-77
2022/08/02 08:15:09;;;;;;;3.17;1.88;;;;;;;21.21;39.40;100704.72;10406383;28;20247;-81
2022/08/02 08:20:31;;;;;;;2.13;1.20;;;;;;;21.16;38.50;100707.94;10394952;28;20197;-77
2022/08/02 08:25:55;;;;;;;2.92;1.05;;;;;;;21.44;38.23;100693.00;10392299;28;20274;-82
2022/08/02 08:31:17;;;;;;;2.30;1.20;;;;;;;22.23;37.26;100686.34;10403253;28;20204;-79
2022/08/02 08:36:40;;;;;;;2.63;0.93;;;;;;;22.22;36.64;100678.13;10401877;28;20216;-77
2022/08/02 08:42:06;;;;;;;1.55;1.00;;;;;;;22.68;36.83;100687.63;10396923;28;20196;-77
2022/08/02 08:47:40;;;;;;;1.73;1.08;;;;;;;22.24;36.93;100678.53;10410640;28;20192;-77
2022/08/02 08:53:07;;;;;;;2.80;1.23;;;;;;;22.79;37.00;100684.72;10392578;28;20217;-77
2022/08/02 08:58:30;;;;;;;1.52;1.17;;;;;;;22.92;36.25;100685.94;10405408;28;20251;-80
2022/08/02 09:03:53;;;;;;;3.33;1.55;;;;;;;22.53;37.74;100683.91;10401443;28;20287;-77
2022/08/02 09:09:15;;;;;;;2.05;1.65;;;;;;;23.21;35.79;100661.69;10394813;28;20593;-77
2022/08/02 09:14:37;;;;;;;6.47;1.50;;;;;;;22.91;36.06;100669.94;10380985;28;20297;-78
2022/08/02 09:20:07;;;;;;;3.03;1.60;;;;;;;24.13;36.02;100653.91;10388784;28;20205;-82
2022/08/02 09:25:29;;;;;;;4.18;1.77;;;;;;;23.80;33.82;100647.53;10409644;28;20489;-77
2022/08/02 09:30:52;;;;;;;1.63;1.20;;;;;;;23.80;34.04;100664.81;10391620;28;20489;-81
2022/08/02 09:36:15;;;;;;;1.90;1.15;;;;;;;23.43;34.58;100653.00;10400025;28;20252;-83
2022/08/02 09:41:40;;;;;;;7.47;1.60;;;;;;;23.72;34.78;100656.59;10386829;28;20314;-82
2022/08/02 09:47:13;;;;;;;2.88;1.33;;;;;;;23.63;34.92;100659.91;10365132;28;20201;-82
2022/08/02 09:52:35;;;;;;;2.65;1.42;;;;;;;23.69;35.13;100666.88;10399719;28;20240;-82
2022/08/02 09:57:57;;;;;;;3.45;1.70;;;;;;;23.88;34.21;100665.56;10413951;28;20201;-83
2022/08/02 10:03:19;;;;;;;2.78;1.42;;;;;;;24.80;34.57;100659.19;10390153;28;20239;-82
2022/08/02 10:08:42;;;;;;;1.88;1.70;;;;;;;24.02;34.50;100659.72;10402963;28;20290;-81
2022/08/02 10:14:06;;;;;;;4.60;1.75;;;;;;;23.96;35.13;100656.47;10388444;28;20221;-81
2022/08/02 10:19:28;;;;;;;6.43;2.58;;;;;;;24.31;34.61;100654.63;10401552;28;20588;-81
2022/08/02 10:24:50;;;;;;;5.45;2.65;;;;;;;23.73;35.93;100661.94;10400190;28;20259;-81
2022/08/02 10:30:12;;;;;;;1.95;1.60;;;;;;;23.76;34.52;100658.22;10410219;28;20209;-80
2022/08/02 10:35:37;;;;;;;3.47;1.48;;;;;;;24.94;34.63;100652.47;10391824;28;20270;-81
2022/08/02 10:40:59;;;;;;;1.55;1.38;;;;;;;25.21;33.92;100638.97;10395117;28;20283;-80
2022/08/02 10:46:34;;;;;;;5.88;2.70;;;;;;;24.51;35.07;100637.59;10368830;28;20224;-80
2022/08/02 10:52:00;;;;;;;3.10;1.57;;;;;;;24.92;34.69;100638.47;10399510;28;20273;-80
2022/08/02 10:57:28;;;;;;;5.63;2.70;;;;;;;24.36;35.02;100645.53;10391347;28;20452;-80
2022/08/02 11:02:51;;;;;;;2.97;2.20;;;;;;;25.02;34.79;100625.16;10391302;28;20523;-81
2022/08/02 11:08:18;;;;;;;4.63;1.88;;;;;;;24.86;34.25;100630.69;10385977;28;20248;-80
2022/08/02 11:14:02;;;;;;;2.15;1.95;;;;;;;24.61;33.91;100631.72;10407930;28;20236;-80
2022/08/02 11:19:26;;;;;;;2.63;2.17;;;;;;;25.52;32.83;100615.94;10408934;28;20644;-80
2022/08/02 11:24:48;;;;;;;2.90;1.88;;;;;;;25.69;32.48;100617.78;10389227;28;20277;-80
2022/08/02 11:30:14;;;;;;;6.03;2.22;;;;;;;25.78;32.65;100620.97;10404585;28;20236;-80
2022/08/02 11:35:37;;;;;;;3.80;2.40;;;;;;;25.66;31.96;100607.09;10409449;28;20244;-80
2022/08/02 11:41:02;;;;;;;3.22;2.28;;;;;;;26.02;32.62;100607.41;10402714;28;20664;-80
2022/08/02 11:46:24;;;;;;;5.93;2.30;;;;;;;25.66;32.36;100613.69;10403401;28;20256;-80
2022/08/02 11:51:53;;;;;;;6.28;2.20;;;;;;;25.30;32.57;100624.88;10420568;28;20240;-80
2022/08/02 11:57:16;;;;;;;3.63;2.13;;;;;;;25.21;33.05;100615.91;10380222;28;20293;-80
2022/08/02 12:02:45;;;;;;;4.40;2.33;;;;;;;25.56;32.37;100605.16;10380712;28;20220;-80
2022/08/02 12:08:07;;;;;;;3.70;2.45;;;;;;;25.62;32.65;100597.69;10372925;28;20622;-80
2022/08/02 12:13:45;;;;;;;6.15;2.42;;;;;;;26.52;31.51;100595.91;10391307;28;20244;-80
2022/08/02 12:19:21;;;;;;;2.45;2.20;;;;;;;26.12;32.38;100591.19;10401388;28;20201;-80
2022/08/02 12:24:51;;;;;;;4.57;2.42;;;;;;;26.12;32.84;100588.28;10378525;28;20220;-81
2022/08/02 12:30:17;;;;;;;5.40;2.00;;;;;;;25.98;32.85;100578.59;10387744;28;20229;-80
2022/08/02 12:35:40;;;;;;;2.40;1.98;;;;;;;25.85;32.35;100580.47;10395576;28;20256;-79
2022/08/02 12:41:12;;;;;;;2.55;1.90;;;;;;;25.90;32.52;100585.72;10392257;28;20220;-79
2022/08/02 12:46:36;;;;;;;2.10;1.80;;;;;;;26.11;31.53;100581.69;10406885;28;20246;-80
2022/08/02 12:51:59;;;;;;;2.15;1.70;;;;;;;27.05;30.57;100565.19;10382809;28;20186;-80
2022/08/02 12:57:23;;;;;;;2.28;1.60;;;;;;;26.94;30.75;100576.13;10408920;28;20204;-79
2022/08/02 13:02:46;;;;;;;3.17;1.33;;;;;;;27.22;31.85;100575.53;10411116;28;20459;-80
2022/08/02 13:08:09;;;;;;;4.80;1.30;;;;;;;27.82;29.86;100564.78;10389251;28;20204;-79
2022/08/02 13:13:33;;;;;;;4.78;1.55;;;;;;;27.14;31.06;100568.28;10417363;28;20202;-80
2022/08/02 13:18:56;;;;;;;4.80;1.40;;;;;;;27.18;30.86;100571.94;10411330;28;20208;-80
2022/08/02 13:24:20;;;;;;;2.42;1.13;;;;;;;26.82;29.98;100556.53;10414418;28;20239;-81
2022/08/02 13:29:44;;;;;;;2.72;1.13;;;;;;;27.19;30.10;100553.28;10420112;28;20235;-79
2022/08/02 13:35:08;;;;;;;2.42;1.00;;;;;;;27.47;29.60;100541.09;10413834;28;20196;-79
2022/08/02 13:40:33;;;;;;;1.60;1.15;;;;;;;27.05;30.58;100539.97;10394776;28;20201;-79
2022/08/02 13:45:56;;;;;;;2.60;1.27;;;;;;;27.44;28.98;100535.44;10355930;28;20202;-80
2022/08/02 13:51:19;;;;;;;3.65;1.20;;;;;;;27.76;28.17;100534.69;10391804;28;20188;-79
2022/08/02 13:56:43;;;;;;;1.40;1.27;;;;;;;27.23;28.54;100518.47;10393435;28;20216;-80
2022/08/02 14:02:07;;;;;;;2.05;1.05;;;;;;;27.46;28.58;100521.28;10392768;28;20204;-80
2022/08/02 14:07:30;;;;;;;2.47;1.15;;;;;;;27.49;28.99;100519.59;10413855;28;20212;-80
2022/08/02 14:12:53;;;;;;;3.40;1.30;;;;;;;27.58;28.45;100522.66;10407668;28;20200;-80
2022/08/02 14:18:18;;;;;;;3.20;1.40;;;;;;;27.73;28.15;100512.38;10429133;28;20205;-81
2022/08/02 14:23:40;;;;;;;2.42;1.23;;;;;;;27.01;28.35;100515.25;10408283;28;20505;-80
2022/08/02 14:29:04;;;;;;;5.15;1.23;;;;;;;27.51;28.65;100514.16;10402863;28;20227;-80
2022/08/02 14:34:26;;;;;;;3.50;1.20;;;;;;;27.59;27.51;100513.53;10402011;28;20260;-80
2022/08/02 14:39:49;;;;;;;2.03;1.00;;;;;;;27.68;27.93;100504.25;10407674;28;20221;-80
2022/08/02 14:45:12;;;;;;;2.75;1.15;;;;;;;27.96;27.36;100497.78;10420092;28;20301;-81
2022/08/02 14:50:34;;;;;;;4.00;1.02;;;;;;;27.72;27.45;100493.38;10404045;28;20228;-80
2022/08/02 14:55:57;;;;;;;3.15;0.75;;;;;;;27.95;27.27;100496.16;10388706;28;20310;-80
2022/08/02 15:01:20;;;;;;;3.45;1.17;;;;;;;27.67;27.22;100485.25;10402840;28;20228;-80
2022/08/02 15:06:43;;;;;;;2.70;1.38;;;;;;;27.91;26.85;100478.03;10392645;28;20232;-79
2022/08/02 15:12:06;;;;;;;1.83;1.40;;;;;;;27.68;26.78;100478.19;10398776;28;20539;-80
2022/08/02 15:17:29;;;;;;;2.50;1.00;;;;;;;27.38;26.57;100471.44;10397372;28;20240;-80
2022/08/02 15:22:51;;;;;;;4.00;1.10;;;;;;;28.13;26.13;100464.63;10396053;28;20224;-80
2022/08/02 15:28:13;;;;;;;1.75;1.27;;;;;;;27.24;27.65;100463.06;10383897;28;20275;-79
2022/08/02 15:33:35;;;;;;;6.20;1.30;;;;;;;27.55;28.40;100465.69;10398590;28;20235;-79
2022/08/02 15:38:58;;;;;;;3.05;1.38;;;;;;;27.82;28.22;100466.28;10401058;28;20282;-80
2022/08/02 15:44:20;;;;;;;2.83;1.27;;;;;;;27.83;26.93;100465.03;10403220;28;20651;-78
2022/08/02 15:49:46;;;;;;;4.22;1.40;;;;;;;27.74;27.65;100461.88;10416845;28;20247;-78
2022/08/02 15:55:09;;;;;;;2.00;1.20;;;;;;;27.51;27.51;100467.84;10401735;28;20236;-78
2022/08/02 16:00:32;;;;;;;2.42;1.40;;;;;;;28.03;27.83;100462.81;10406368;28;20203;-78
2022/08/02 16:05:54;;;;;;;3.92;0.90;;;;;;;27.13;28.58;100464.56;10399408;28;20808;-78
2022/08/02 16:11:17;;;;;;;3.08;1.40;;;;;;;26.79;28.96;100465.72;10419812;28;20228;-78
2022/08/02 16:16:39;;;;;;;5.03;1.42;;;;;;;27.78;27.71;100445.28;10398862;28;20252;-78
2022/08/02 16:22:01;;;;;;;5.15;1.45;;;;;;;27.07;29.10;100438.22;10393129;28;20225;-79
2022/08/02 16:27:24;;;;;;;3.25;1.42;;;;;;;27.86;29.02;100446.72;10393719;28;20542;-78
2022/08/02 16:32:48;;;;;;;2.35;1.40;;;;;;;26.84;28.93;100441.22;10401019;28;20227;-78
2022/08/02 16:38:10;;;;;;;2.17;1.08;;;;;;;26.77;29.58;100435.59;10409782;28;20640;-79
2022/08/02 16:43:33;;;;;;;2.25;1.52;;;;;;;27.84;28.38;100431.84;10398829;28;20223;-78
2022/08/02 16:48:55;;;;;;;6.80;1.38;;;;;;;27.55;28.59;100437.53;10386962;28;20224;-78
2022/08/02 16:54:18;;;;;;;1.33;0.90;;;;;;;27.98;28.54;100430.66;10395402;28;20321;-80
2022/08/02 16:59:40;;;;;;;1.70;1.30;;;;;;;27.25;28.21;100427.06;10394053;28;20219;-80
2022/08/02 17:05:03;;;;;;;3.13;1.20;;;;;;;27.76;28.19;100416.75;10413272;28;20278;-80
2022/08/02 17:10:28;;;;;;;17.67;12.80;;;;;;;27.60;28.55;100415.91;10414076;28;20281;-80
2022/08/02 17:15:50;;;;;;;8.40;7.22;;;;;;;27.10;28.75;100405.50;10393194;28;20244;-79
2022/08/02 17:21:12;;;;;;;4.00;1.45;;;;;;;26.18;29.51;100404.50;10397148;28;20240;-79
2022/08/02 17:26:36;;;;;;;2.38;1.75;;;;;;;25.90;29.95;100398.00;10395814;28;20251;-78
2022/08/02 17:31:58;;;;;;;7.10;6.00;;;;;;;27.72;28.40;100406.50;10385746;28;20277;-79
2022/08/02 17:37:21;;;;;;;1.77;1.02;;;;;;;27.40;28.25;100407.31;10402672;28;20695;-79
2022/08/02 17:42:43;;;;;;;4.40;1.15;;;;;;;27.82;27.13;100402.56;10396543;28;20270;-79
2022/08/02 17:48:05;;;;;;;6.03;3.55;;;;;;;27.74;27.88;100396.13;10405653;28;20228;-79
2022/08/02 17:53:27;;;;;;;3.40;1.90;;;;;;;27.67;27.94;100407.88;10420934;28;20293;-79
2022/08/02 17:58:50;;;;;;;1.98;1.83;;;;;;;27.21;28.49;100400.28;10420154;28;20298;-79
2022/08/02 18:04:12;;;;;;;1.65;1.20;;;;;;;27.47;28.21;100399.25;10402787;28;20282;-78
2022/08/02 18:09:34;;;;;;;2.03;0.70;;;;;;;27.57;27.79;100400.28;10418998;28;20545;-79
2022/08/02 18:14:58;;;;;;;2.17;1.10;;;;;;;27.61;28.22;100405.97;10387199;28;20282;-79
2022/08/02 18:20:20;;;;;;;2.25;1.60;;;;;;;27.70;28.65;100395.38;10397140;28;20659;-79
2022/08/02 18:25:42;;;;;;;4.72;2.50;;;;;;;27.57;28.67;100400.28;10382032;28;20185;-79
2022/08/02 18:31:05;;;;;;;5.60;4.85;;;;;;;27.29;30.03;100410.47;10397720;28;20531;-79
2022/08/02 18:36:29;;;;;;;2.50;0.90;;;;;;;27.09;29.42;100403.88;10394963;28;20326;-79
2022/08/02 18:41:51;;;;;;;1.27;0.80;;;;;;;27.05;29.61;100408.94;10404138;28;20671;-80
2022/08/02 18:47:13;;;;;;;1.58;0.80;;;;;;;27.09;29.91;100406.75;10386453;28;20224;-80
2022/08/02 18:52:36;;;;;;;2.63;1.52;;;;;;;26.90;29.92;100404.75;10354653;28;20232;-81
2022/08/02 18:57:59;;;;;;;2.95;1.33;;;;;;;26.80;30.39;100421.03;10390344;28;20301;-80
2022/08/02 19:03:22;;;;;;;2.17;1.00;;;;;;;26.62;31.00;100421.41;10403787;28;20598;-80
2022/08/02 19:08:46;;;;;;;2.15;1.27;;;;;;;26.56;31.19;100423.19;10407061;28;20312;-81
2022/08/02 19:14:08;;;;;;;1.98;1.10;;;;;;;26.48;31.50;100418.00;10396061;28;20255;-81
2022/08/02 19:19:30;;;;;;;4.15;1.92;;;;;;;26.34;32.67;100419.91;10391126;28;20663;-81
2022/08/02 19:24:55;;;;;;;5.05;3.20;;;;;;;26.33;33.30;100423.25;10390946;28;20225;-80
2022/08/02 19:30:18;;;;;;;6.20;3.42;;;;;;;25.72;35.69;100426.38;10390168;28;20259;-81
2022/08/02 19:35:40;;;;;;;2.65;1.80;;;;;;;25.79;35.07;100432.03;10400901;28;20252;-81
2022/08/02 19:41:02;;;;;;;3.05;2.03;;;;;;;25.67;35.26;100432.63;10389020;28;20189;-81
2022/08/02 19:46:24;;;;;;;3.47;1.85;;;;;;;25.54;35.87;100437.38;10402487;28;20217;-81
2022/08/02 19:51:48;;;;;;;5.45;1.67;;;;;;;25.55;36.18;100444.78;10379790;28;20224;-80
2022/08/02 19:57:10;;;;;;;4.20;2.60;;;;;;;25.29;36.49;100441.47;10393438;28;20279;-81
2022/08/02 20:02:32;;;;;;;3.10;1.98;;;;;;;25.42;36.08;100441.69;10388420;28;20886;-82
2022/08/02 20:07:55;;;;;;;1.83;1.70;;;;;;;25.31;36.86;100447.63;10395234;28;20609;-82
2022/08/02 20:13:17;;;;;;;3.42;2.83;;;;;;;25.32;37.20;100446.38;10403984;28;20221;-81
2022/08/02 20:18:40;;;;;;;4.18;2.03;;;;;;;24.80;37.93;100453.66;10379965;28;20306;-82
2022/08/02 20:24:06;;;;;;;3.38;2.03;;;;;;;24.71;37.72;100453.34;10386257;28;20201;-82
2022/08/02 20:29:29;;;;;;;3.38;1.88;;;;;;;24.70;37.98;100454.59;10404408;28;20197;-82
2022/08/02 20:34:51;;;;;;;2.78;1.85;;;;;;;24.87;37.43;100462.22;10394976;28;20301;-84
2022/08/02 20:40:13;;;;;;;4.60;2.47;;;;;;;24.84;37.86;100466.81;10394907;28;20193;-84
2022/08/02 20:45:36;;;;;;;4.15;3.20;;;;;;;24.62;37.92;100463.31;10392249;28;20189;-81
2022/08/02 20:50:58;;;;;;;3.47;2.22;;;;;;;24.49;38.60;100472.94;10398263;28;20238;-81
2022/08/02 20:56:20;;;;;;;2.63;1.88;;;;;;;24.70;38.38;100461.19;10400682;28;20223;-81
2022/08/02 21:01:42;;;;;;;2.42;1.45;;;;;;;24.36;38.39;100466.91;10398764;28;20192;-81
2022/08/02 21:07:05;;;;;;;4.35;1.52;;;;;;;24.59;37.78;100467.03;10399269;28;20577;-81
2022/08/02 21:12:27;;;;;;;3.13;2.45;;;;;;;24.34;38.47;100460.75;10394256;28;20255;-81
2022/08/02 21:17:50;;;;;;;3.35;2.38;;;;;;;24.21;39.23;100462.53;10391671;28;20278;-81
2022/08/02 21:23:12;;;;;;;3.35;1.80;;;;;;;24.08;39.11;100455.63;10400436;28;20338;-81
2022/08/02 21:28:34;;;;;;;4.45;1.67;;;;;;;24.04;39.27;100463.50;10399987;28;20455;-82
2022/08/02 21:33:57;;;;;;;2.70;2.00;;;;;;;23.84;39.41;100469.84;10396169;28;20308;-81
2022/08/02 21:39:19;;;;;;;3.72;2.22;;;;;;;23.43;40.36;100471.75;10401850;28;20302;-81
2022/08/02 21:44:42;;;;;;;3.47;2.30;;;;;;;23.66;39.51;100480.69;10400166;28;20660;-81
2022/08/02 21:50:04;;;;;;;2.20;2.00;;;;;;;23.49;40.37;100479.53;10391541;28;20227;-81
2022/08/02 21:55:26;;;;;;;5.18;2.53;;;;;;;23.39;40.74;100483.31;10401454;28;20244;-81
2022/08/02 22:00:48;;;;;;;2.20;1.80;;;;;;;23.59;40.29;100481.50;10390644;28;20200;-81
2022/08/02 22:06:11;;;;;;;4.55;1.88;;;;;;;23.58;39.97;100484.81;10420477;28;20266;-81
2022/08/02 22:11:33;;;;;;;3.35;2.08;;;;;;;23.25;40.76;100481.34;10409267;28;20314;-81
2022/08/02 22:16:55;;;;;;;3.22;1.88;;;;;;;23.24;41.15;100485.44;10402051;28;20244;-81
2022/08/02 22:22:17;;;;;;;2.38;1.70;;;;;;;22.96;41.58;100493.34;10415032;28;20201;-81
2022/08/02 22:27:40;;;;;;;2.58;1.77;;;;;;;23.04;41.18;100490.03;10382476;28;20193;-81
2022/08/02 22:38:45;;;;;;;3.88;2.45;;;;;;;22.65;41.85;100497.97;10405578;28;20286;-80
2022/08/02 22:44:07;;;;;;;1.60;1.50;;;;;;;22.68;41.48;100497.16;10402101;28;20778;-81
2022/08/02 22:49:29;;;;;;;3.60;1.70;;;;;;;22.64;42.05;100496.38;10402807;28;20679;-81
2022/08/02 22:54:51;;;;;;;2.00;1.85;;;;;;;22.46;42.40;100493.50;10379365;28;20228;-81
2022/08/02 23:00:14;;;;;;;3.53;2.10;;;;;;;22.19;43.15;100496.00;10406965;28;20193;-81
2022/08/02 23:05:37;;;;;;;4.30;1.92;;;;;;;22.11;43.37;100497.25;10404148;28;20278;-81
2022/08/02 23:11:01;;;;;;;4.18;1.80;;;;;;;22.24;42.02;100495.59;10404137;28;20262;-81
2022/08/02 23:22:04;;;;;;;5.03;2.00;;;;;;;22.79;40.48;100486.44;10403318;28;20243;-81
2022/08/02 23:27:28;;;;;;;4.80;1.70;;;;;;;22.73;40.73;100497.56;10399122;28;20241;-80
2022/08/02 23:32:50;;;;;;;3.97;1.73;;;;;;;22.23;41.39;100491.09;10384054;28;20266;-80
2022/08/02 23:38:12;;;;;;;7.63;1.73;;;;;;;22.50;40.72;100489.41;10400050;28;20270;-81
2022/08/02 23:43:34;;;;;;;4.85;2.00;;;;;;;22.38;41.38;100486.94;10394292;28;20205;-81
2022/08/02 23:48:56;;;;;;;3.58;1.65;;;;;;;22.11;41.80;100485.78;10395916;28;20192;-80
2022/08/02 23:54:19;;;;;;;4.53;2.15;;;;;;;22.29;41.74;100479.97;10389058;28;20209;-81
2022/08/02 23:59:41;;;;;;;3.05;2.22;;;;;;;22.54;41.83;100487.34;10407806;28;20286;-82
